sensor_id;sensor_type;location;lat;lon;timestamp;temperature;humidity
40622;DHT22;26324;52.040;11.528;2023-04-29T00:01:34;12.30;89.00
40622;DHT22;26324;52.040;11.528;2023-04-29T00:04:01;12.20;89.10
40622;DHT22;26324;52.040;11.528;2023-04-29T00:06:29;12.20;89.20
40622;DHT22;26324;52.040;11.528;2023-04-29T00:08:56;12.20;89.30
40622;DHT22;26324;52.040;11.528;2023-04-29T00:11:24;12.10;89.20
40622;DHT22;26324;52.040;11.528;2023-04-29T00:13:51;12.10;89.20
40622;DHT22;26324;52.040;11.528;2023-04-29T00:16:19;12.00;89.40
40622;DHT22;26324;52.040;11.528;2023-04-29T00:18:46;12.00;89.60
40622;DHT22;26324;52.040;11.528;2023-04-29T00:21:14;12.00;89.70
40622;DHT22;26324;52.040;11.528;2023-04-29T00:23:41;11.90;89.80
40622;DHT22;26324;52.040;11.528;2023-04-29T00:26:08;12.00;89.80
40622;DHT22;26324;52.040;11.528;2023-04-29T00:28:35;12.00;89.90
40622;DHT22;26324;52.040;11.528;2023-04-29T00:31:03;12.00;89.90
40622;DHT22;26324;52.040;11.528;2023-04-29T00:33:30;12.00;89.70
40622;DHT22;26324;52.040;11.528;2023-04-29T00:35:57;12.00;89.60
40622;DHT22;26324;52.040;11.528;2023-04-29T00:38:24;12.10;89.70
40622;DHT22;26324;52.040;11.528;2023-04-29T00:40:52;12.00;89.60
40622;DHT22;26324;52.040;11.528;2023-04-29T00:43:19;12.00;89.70
40622;DHT22;26324;52.040;11.528;2023-04-29T00:45:47;12.00;89.80
40622;DHT22;26324;52.040;11.528;2023-04-29T00:48:14;12.00;89.70
40622;DHT22;26324;52.040;11.528;2023-04-29T00:50:42;12.00;89.70
40622;DHT22;26324;52.040;11.528;2023-04-29T00:53:10;12.00;90.00
40622;DHT22;26324;52.040;11.528;2023-04-29T00:55:40;12.00;90.00
40622;DHT22;26324;52.040;11.528;2023-04-29T00:58:10;11.90;90.10
40622;DHT22;26324;52.040;11.528;2023-04-29T01:00:38;11.80;90.20
40622;DHT22;26324;52.040;11.528;2023-04-29T01:03:07;11.80;90.40
40622;DHT22;26324;52.040;11.528;2023-04-29T01:05:35;11.80;90.30
40622;DHT22;26324;52.040;11.528;2023-04-29T01:08:13;11.70;90.30
40622;DHT22;26324;52.040;11.528;2023-04-29T01:13:51;11.60;90.50
40622;DHT22;26324;52.040;11.528;2023-04-29T01:23:26;11.60;90.60
40622;DHT22;26324;52.040;11.528;2023-04-29T01:25:56;11.50;90.60
40622;DHT22;26324;52.040;11.528;2023-04-29T01:28:49;11.60;90.60
40622;DHT22;26324;52.040;11.528;2023-04-29T01:34:09;11.60;90.30
40622;DHT22;26324;52.040;11.528;2023-04-29T01:36:52;11.60;90.50
40622;DHT22;26324;52.040;11.528;2023-04-29T01:39:50;11.60;90.50
40622;DHT22;26324;52.040;11.528;2023-04-29T01:42:44;11.60;90.60
40622;DHT22;26324;52.040;11.528;2023-04-29T01:45:15;11.60;90.50
40622;DHT22;26324;52.040;11.528;2023-04-29T01:47:46;11.60;90.40
40622;DHT22;26324;52.040;11.528;2023-04-29T01:50:16;11.70;90.40
40622;DHT22;26324;52.040;11.528;2023-04-29T01:52:44;11.70;90.20
40622;DHT22;26324;52.040;11.528;2023-04-29T01:55:11;11.70;90.20
40622;DHT22;26324;52.040;11.528;2023-04-29T01:57:52;11.70;90.40
40622;DHT22;26324;52.040;11.528;2023-04-29T02:00:42;11.70;90.30
40622;DHT22;26324;52.040;11.528;2023-04-29T02:03:10;11.70;90.40
40622;DHT22;26324;52.040;11.528;2023-04-29T02:05:41;11.80;90.30
40622;DHT22;26324;52.040;11.528;2023-04-29T02:08:09;11.80;90.40
40622;DHT22;26324;52.040;11.528;2023-04-29T02:10:40;11.90;90.30
40622;DHT22;26324;52.040;11.528;2023-04-29T02:13:18;11.90;90.30
40622;DHT22;26324;52.040;11.528;2023-04-29T02:15:46;12.00;90.20
40622;DHT22;26324;52.040;11.528;2023-04-29T02:18:14;12.00;90.20
40622;DHT22;26324;52.040;11.528;2023-04-29T02:20:42;12.10;89.80
40622;DHT22;26324;52.040;11.528;2023-04-29T02:23:09;12.30;89.70
40622;DHT22;26324;52.040;11.528;2023-04-29T02:25:37;12.30;89.30
40622;DHT22;26324;52.040;11.528;2023-04-29T02:28:04;12.40;89.10
40622;DHT22;26324;52.040;11.528;2023-04-29T02:30:32;12.40;89.10
40622;DHT22;26324;52.040;11.528;2023-04-29T02:32:59;12.40;89.00
40622;DHT22;26324;52.040;11.528;2023-04-29T02:35:26;12.40;88.80
40622;DHT22;26324;52.040;11.528;2023-04-29T02:37:54;12.40;88.60
40622;DHT22;26324;52.040;11.528;2023-04-29T02:40:21;12.50;88.60
40622;DHT22;26324;52.040;11.528;2023-04-29T02:42:48;12.40;88.50
40622;DHT22;26324;52.040;11.528;2023-04-29T02:45:15;12.40;88.30
40622;DHT22;26324;52.040;11.528;2023-04-29T02:47:44;12.40;88.40
40622;DHT22;26324;52.040;11.528;2023-04-29T02:50:11;12.40;88.50
40622;DHT22;26324;52.040;11.528;2023-04-29T02:52:38;12.40;88.50
40622;DHT22;26324;52.040;11.528;2023-04-29T02:55:07;12.40;88.40
40622;DHT22;26324;52.040;11.528;2023-04-29T02:57:35;12.40;88.30
40622;DHT22;26324;52.040;11.528;2023-04-29T03:00:02;12.30;88.20
40622;DHT22;26324;52.040;11.528;2023-04-29T03:02:30;12.40;88.20
40622;DHT22;26324;52.040;11.528;2023-04-29T03:04:58;12.40;87.90
40622;DHT22;26324;52.040;11.528;2023-04-29T03:07:25;12.30;87.80
40622;DHT22;26324;52.040;11.528;2023-04-29T03:09:55;12.40;87.90
40622;DHT22;26324;52.040;11.528;2023-04-29T03:12:22;12.40;87.70
40622;DHT22;26324;52.040;11.528;2023-04-29T03:14:50;12.20;87.80
40622;DHT22;26324;52.040;11.528;2023-04-29T03:17:18;12.20;87.90
40622;DHT22;26324;52.040;11.528;2023-04-29T03:19:45;12.20;87.90
40622;DHT22;26324;52.040;11.528;2023-04-29T03:22:14;12.20;87.90
40622;DHT22;26324;52.040;11.528;2023-04-29T03:24:42;12.20;87.80
40622;DHT22;26324;52.040;11.528;2023-04-29T03:27:10;12.30;87.70
40622;DHT22;26324;52.040;11.528;2023-04-29T03:29:37;12.20;87.80
40622;DHT22;26324;52.040;11.528;2023-04-29T03:32:05;12.20;87.70
40622;DHT22;26324;52.040;11.528;2023-04-29T03:34:33;12.20;87.70
40622;DHT22;26324;52.040;11.528;2023-04-29T03:37:13;12.20;87.60
40622;DHT22;26324;52.040;11.528;2023-04-29T03:39:45;12.20;87.80
40622;DHT22;26324;52.040;11.528;2023-04-29T03:42:13;12.20;87.60
40622;DHT22;26324;52.040;11.528;2023-04-29T03:44:40;12.10;87.90
40622;DHT22;26324;52.040;11.528;2023-04-29T03:47:08;12.10;88.00
40622;DHT22;26324;52.040;11.528;2023-04-29T03:49:36;12.10;88.00
40622;DHT22;26324;52.040;11.528;2023-04-29T03:52:04;12.20;88.00
40622;DHT22;26324;52.040;11.528;2023-04-29T03:54:31;12.20;87.90
40622;DHT22;26324;52.040;11.528;2023-04-29T03:56:59;12.10;87.90
40622;DHT22;26324;52.040;11.528;2023-04-29T03:59:28;12.10;88.10
40622;DHT22;26324;52.040;11.528;2023-04-29T04:01:57;12.10;87.90
40622;DHT22;26324;52.040;11.528;2023-04-29T04:04:24;12.10;88.00
40622;DHT22;26324;52.040;11.528;2023-04-29T04:06:52;12.20;88.00
40622;DHT22;26324;52.040;11.528;2023-04-29T04:09:24;12.20;87.90
40622;DHT22;26324;52.040;11.528;2023-04-29T04:11:52;12.20;87.70
40622;DHT22;26324;52.040;11.528;2023-04-29T04:14:20;12.30;87.40
40622;DHT22;26324;52.040;11.528;2023-04-29T04:16:47;12.20;87.60
40622;DHT22;26324;52.040;11.528;2023-04-29T04:19:17;12.20;87.70
40622;DHT22;26324;52.040;11.528;2023-04-29T04:21:45;12.20;87.60
40622;DHT22;26324;52.040;11.528;2023-04-29T04:24:12;12.20;87.80
40622;DHT22;26324;52.040;11.528;2023-04-29T04:26:40;12.10;88.10
40622;DHT22;26324;52.040;11.528;2023-04-29T04:29:19;12.20;87.80
40622;DHT22;26324;52.040;11.528;2023-04-29T04:31:53;12.10;88.00
40622;DHT22;26324;52.040;11.528;2023-04-29T04:34:22;12.10;88.10
40622;DHT22;26324;52.040;11.528;2023-04-29T04:36:51;12.10;88.20
40622;DHT22;26324;52.040;11.528;2023-04-29T04:39:18;12.10;88.20
40622;DHT22;26324;52.040;11.528;2023-04-29T04:41:46;12.10;88.10
40622;DHT22;26324;52.040;11.528;2023-04-29T04:44:13;12.00;88.40
40622;DHT22;26324;52.040;11.528;2023-04-29T04:47:00;12.00;88.50
40622;DHT22;26324;52.040;11.528;2023-04-29T04:49:43;12.00;88.60
40622;DHT22;26324;52.040;11.528;2023-04-29T04:52:11;12.00;88.70
40622;DHT22;26324;52.040;11.528;2023-04-29T04:54:38;12.00;88.50
40622;DHT22;26324;52.040;11.528;2023-04-29T04:57:14;12.00;88.70
40622;DHT22;26324;52.040;11.528;2023-04-29T04:59:41;12.00;88.90
40622;DHT22;26324;52.040;11.528;2023-04-29T05:02:09;11.90;89.00
40622;DHT22;26324;52.040;11.528;2023-04-29T05:04:36;11.90;89.10
40622;DHT22;26324;52.040;11.528;2023-04-29T05:07:03;11.90;89.00
40622;DHT22;26324;52.040;11.528;2023-04-29T05:09:42;12.00;89.20
40622;DHT22;26324;52.040;11.528;2023-04-29T05:12:10;12.00;88.80
40622;DHT22;26324;52.040;11.528;2023-04-29T05:14:37;12.00;88.50
40622;DHT22;26324;52.040;11.528;2023-04-29T05:17:04;12.20;88.40
40622;DHT22;26324;52.040;11.528;2023-04-29T05:19:32;12.30;87.70
40622;DHT22;26324;52.040;11.528;2023-04-29T05:21:59;12.40;87.50
40622;DHT22;26324;52.040;11.528;2023-04-29T05:24:27;12.50;87.20
40622;DHT22;26324;52.040;11.528;2023-04-29T05:26:55;12.50;86.70
40622;DHT22;26324;52.040;11.528;2023-04-29T05:29:24;12.40;86.10
40622;DHT22;26324;52.040;11.528;2023-04-29T05:31:57;12.40;85.70
40622;DHT22;26324;52.040;11.528;2023-04-29T05:34:25;12.40;85.70
40622;DHT22;26324;52.040;11.528;2023-04-29T05:36:52;12.40;85.40
40622;DHT22;26324;52.040;11.528;2023-04-29T05:39:20;12.30;85.60
40622;DHT22;26324;52.040;11.528;2023-04-29T05:41:56;12.20;85.90
40622;DHT22;26324;52.040;11.528;2023-04-29T05:44:35;12.30;85.90
40622;DHT22;26324;52.040;11.528;2023-04-29T05:47:02;12.20;86.00
40622;DHT22;26324;52.040;11.528;2023-04-29T05:49:29;12.20;85.80
40622;DHT22;26324;52.040;11.528;2023-04-29T05:51:57;12.10;85.80
40622;DHT22;26324;52.040;11.528;2023-04-29T05:54:30;12.10;86.10
40622;DHT22;26324;52.040;11.528;2023-04-29T05:56:57;12.10;86.20
40622;DHT22;26324;52.040;11.528;2023-04-29T05:59:25;12.00;86.00
40622;DHT22;26324;52.040;11.528;2023-04-29T06:01:53;12.00;85.70
40622;DHT22;26324;52.040;11.528;2023-04-29T06:04:21;12.00;85.80
40622;DHT22;26324;52.040;11.528;2023-04-29T06:07:13;12.00;85.60
40622;DHT22;26324;52.040;11.528;2023-04-29T06:09:57;12.00;85.80
40622;DHT22;26324;52.040;11.528;2023-04-29T06:12:25;11.90;86.30
40622;DHT22;26324;52.040;11.528;2023-04-29T06:14:53;12.00;86.10
40622;DHT22;26324;52.040;11.528;2023-04-29T06:17:21;12.00;85.30
40622;DHT22;26324;52.040;11.528;2023-04-29T06:19:48;11.90;85.00
40622;DHT22;26324;52.040;11.528;2023-04-29T06:22:15;11.90;84.90
40622;DHT22;26324;52.040;11.528;2023-04-29T06:24:48;11.90;85.20
40622;DHT22;26324;52.040;11.528;2023-04-29T06:27:24;11.80;85.10
40622;DHT22;26324;52.040;11.528;2023-04-29T06:29:51;11.90;84.90
40622;DHT22;26324;52.040;11.528;2023-04-29T06:32:19;12.00;84.50
40622;DHT22;26324;52.040;11.528;2023-04-29T06:34:47;12.00;84.00
40622;DHT22;26324;52.040;11.528;2023-04-29T06:37:40;12.00;83.20
40622;DHT22;26324;52.040;11.528;2023-04-29T06:40:30;11.90;83.20
40622;DHT22;26324;52.040;11.528;2023-04-29T06:43:04;12.00;83.90
40622;DHT22;26324;52.040;11.528;2023-04-29T06:45:48;12.10;83.10
40622;DHT22;26324;52.040;11.528;2023-04-29T06:48:20;12.10;83.40
40622;DHT22;26324;52.040;11.528;2023-04-29T06:50:52;12.10;83.10
40622;DHT22;26324;52.040;11.528;2023-04-29T06:53:20;12.10;83.50
40622;DHT22;26324;52.040;11.528;2023-04-29T06:55:47;12.10;83.00
40622;DHT22;26324;52.040;11.528;2023-04-29T06:58:15;12.10;82.90
40622;DHT22;26324;52.040;11.528;2023-04-29T07:00:47;12.10;83.00
40622;DHT22;26324;52.040;11.528;2023-04-29T07:03:16;12.10;83.10
40622;DHT22;26324;52.040;11.528;2023-04-29T07:05:44;12.30;83.00
40622;DHT22;26324;52.040;11.528;2023-04-29T07:08:13;12.30;81.70
40622;DHT22;26324;52.040;11.528;2023-04-29T07:10:40;12.40;82.00
40622;DHT22;26324;52.040;11.528;2023-04-29T07:13:08;12.40;82.30
40622;DHT22;26324;52.040;11.528;2023-04-29T07:15:36;12.40;81.80
40622;DHT22;26324;52.040;11.528;2023-04-29T07:18:04;12.40;81.70
40622;DHT22;26324;52.040;11.528;2023-04-29T07:20:32;12.20;81.60
40622;DHT22;26324;52.040;11.528;2023-04-29T07:22:59;12.10;82.30
40622;DHT22;26324;52.040;11.528;2023-04-29T07:25:26;12.10;82.80
40622;DHT22;26324;52.040;11.528;2023-04-29T07:27:55;12.10;82.80
40622;DHT22;26324;52.040;11.528;2023-04-29T07:30:24;12.00;83.00
40622;DHT22;26324;52.040;11.528;2023-04-29T07:32:51;12.00;83.30
40622;DHT22;26324;52.040;11.528;2023-04-29T07:35:19;11.90;83.20
40622;DHT22;26324;52.040;11.528;2023-04-29T07:37:46;11.60;83.20
40622;DHT22;26324;52.040;11.528;2023-04-29T07:40:14;11.60;83.90
40622;DHT22;26324;52.040;11.528;2023-04-29T07:42:42;11.60;83.90
40622;DHT22;26324;52.040;11.528;2023-04-29T07:45:11;11.70;83.30
40622;DHT22;26324;52.040;11.528;2023-04-29T07:47:39;11.80;83.30
40622;DHT22;26324;52.040;11.528;2023-04-29T07:50:07;12.00;82.80
40622;DHT22;26324;52.040;11.528;2023-04-29T07:52:34;12.10;82.30
40622;DHT22;26324;52.040;11.528;2023-04-29T07:55:02;12.10;81.80
40622;DHT22;26324;52.040;11.528;2023-04-29T07:57:29;12.10;82.10
40622;DHT22;26324;52.040;11.528;2023-04-29T07:59:56;12.10;81.80
40622;DHT22;26324;52.040;11.528;2023-04-29T08:02:24;12.10;81.50
40622;DHT22;26324;52.040;11.528;2023-04-29T08:04:51;12.10;81.80
40622;DHT22;26324;52.040;11.528;2023-04-29T08:07:22;12.00;81.50
40622;DHT22;26324;52.040;11.528;2023-04-29T08:09:50;12.00;82.30
40622;DHT22;26324;52.040;11.528;2023-04-29T08:12:18;11.90;82.00
40622;DHT22;26324;52.040;11.528;2023-04-29T08:14:45;11.80;82.60
40622;DHT22;26324;52.040;11.528;2023-04-29T08:17:12;11.80;82.90
40622;DHT22;26324;52.040;11.528;2023-04-29T08:19:40;11.60;82.90
40622;DHT22;26324;52.040;11.528;2023-04-29T08:22:07;11.60;83.10
40622;DHT22;26324;52.040;11.528;2023-04-29T08:24:37;11.60;83.60
40622;DHT22;26324;52.040;11.528;2023-04-29T08:27:04;11.50;84.20
40622;DHT22;26324;52.040;11.528;2023-04-29T08:29:31;11.60;84.00
40622;DHT22;26324;52.040;11.528;2023-04-29T08:31:59;11.50;83.50
40622;DHT22;26324;52.040;11.528;2023-04-29T08:34:26;11.50;83.70
40622;DHT22;26324;52.040;11.528;2023-04-29T08:36:55;11.50;83.80
40622;DHT22;26324;52.040;11.528;2023-04-29T08:39:22;11.50;83.50
40622;DHT22;26324;52.040;11.528;2023-04-29T08:41:50;11.50;83.60
40622;DHT22;26324;52.040;11.528;2023-04-29T08:44:18;11.60;83.10
40622;DHT22;26324;52.040;11.528;2023-04-29T08:46:46;11.60;83.40
40622;DHT22;26324;52.040;11.528;2023-04-29T08:49:14;11.60;83.60
40622;DHT22;26324;52.040;11.528;2023-04-29T08:51:41;11.70;82.90
40622;DHT22;26324;52.040;11.528;2023-04-29T08:54:11;11.70;83.10
40622;DHT22;26324;52.040;11.528;2023-04-29T08:56:38;11.80;82.40
40622;DHT22;26324;52.040;11.528;2023-04-29T08:59:08;11.80;82.00
40622;DHT22;26324;52.040;11.528;2023-04-29T09:01:39;11.80;82.00
40622;DHT22;26324;52.040;11.528;2023-04-29T09:04:20;11.80;81.80
40622;DHT22;26324;52.040;11.528;2023-04-29T09:06:55;11.90;81.80
40622;DHT22;26324;52.040;11.528;2023-04-29T09:09:26;11.90;81.20
40622;DHT22;26324;52.040;11.528;2023-04-29T09:11:53;11.90;81.20
40622;DHT22;26324;52.040;11.528;2023-04-29T09:14:22;11.90;80.80
40622;DHT22;26324;52.040;11.528;2023-04-29T09:16:50;12.00;81.00
40622;DHT22;26324;52.040;11.528;2023-04-29T09:21:56;12.10;81.00
40622;DHT22;26324;52.040;11.528;2023-04-29T09:24:25;12.40;80.70
40622;DHT22;26324;52.040;11.528;2023-04-29T09:26:56;12.60;80.60
40622;DHT22;26324;52.040;11.528;2023-04-29T09:29:25;12.80;79.80
40622;DHT22;26324;52.040;11.528;2023-04-29T09:31:52;13.00;78.10
40622;DHT22;26324;52.040;11.528;2023-04-29T09:34:31;13.10;77.90
40622;DHT22;26324;52.040;11.528;2023-04-29T09:36:58;13.10;77.80
40622;DHT22;26324;52.040;11.528;2023-04-29T09:39:25;13.10;77.70
40622;DHT22;26324;52.040;11.528;2023-04-29T09:44:22;13.10;77.80
40622;DHT22;26324;52.040;11.528;2023-04-29T09:47:04;13.10;76.00
40622;DHT22;26324;52.040;11.528;2023-04-29T09:49:36;13.10;76.90
40622;DHT22;26324;52.040;11.528;2023-04-29T09:52:07;13.00;76.80
40622;DHT22;26324;52.040;11.528;2023-04-29T09:54:35;12.80;77.60
40622;DHT22;26324;52.040;11.528;2023-04-29T09:57:04;12.80;77.70
40622;DHT22;26324;52.040;11.528;2023-04-29T09:59:38;12.90;77.60
40622;DHT22;26324;52.040;11.528;2023-04-29T10:02:16;13.10;77.80
40622;DHT22;26324;52.040;11.528;2023-04-29T10:04:48;13.50;77.60
40622;DHT22;26324;52.040;11.528;2023-04-29T10:07:18;13.80;76.50
40622;DHT22;26324;52.040;11.528;2023-04-29T10:09:47;14.10;75.80
40622;DHT22;26324;52.040;11.528;2023-04-29T10:12:16;14.00;73.40
40622;DHT22;26324;52.040;11.528;2023-04-29T10:14:57;13.70;74.30
40622;DHT22;26324;52.040;11.528;2023-04-29T10:17:40;13.60;75.50
40622;DHT22;26324;52.040;11.528;2023-04-29T10:20:12;13.50;75.80
40622;DHT22;26324;52.040;11.528;2023-04-29T10:22:51;13.50;75.10
40622;DHT22;26324;52.040;11.528;2023-04-29T10:25:20;13.50;75.10
40622;DHT22;26324;52.040;11.528;2023-04-29T10:27:49;13.50;75.70
40622;DHT22;26324;52.040;11.528;2023-04-29T10:30:19;13.50;75.00
40622;DHT22;26324;52.040;11.528;2023-04-29T10:32:48;13.50;75.70
40622;DHT22;26324;52.040;11.528;2023-04-29T10:35:20;13.70;76.00
40622;DHT22;26324;52.040;11.528;2023-04-29T10:37:52;14.00;74.30
40622;DHT22;26324;52.040;11.528;2023-04-29T10:40:40;14.20;74.70
40622;DHT22;26324;52.040;11.528;2023-04-29T10:43:08;14.50;72.00
40622;DHT22;26324;52.040;11.528;2023-04-29T10:45:36;14.50;71.70
40622;DHT22;26324;52.040;11.528;2023-04-29T10:48:11;14.70;73.40
40622;DHT22;26324;52.040;11.528;2023-04-29T10:53:18;15.20;72.00
40622;DHT22;26324;52.040;11.528;2023-04-29T10:55:47;15.50;71.00
40622;DHT22;26324;52.040;11.528;2023-04-29T10:58:34;15.50;69.20
40622;DHT22;26324;52.040;11.528;2023-04-29T11:01:02;15.40;68.50
40622;DHT22;26324;52.040;11.528;2023-04-29T11:03:57;15.30;69.30
40622;DHT22;26324;52.040;11.528;2023-04-29T11:09:03;15.20;69.10
40622;DHT22;26324;52.040;11.528;2023-04-29T11:11:57;15.20;68.20
40622;DHT22;26324;52.040;11.528;2023-04-29T11:14:28;15.20;67.70
40622;DHT22;26324;52.040;11.528;2023-04-29T11:17:12;15.20;70.70
40622;DHT22;26324;52.040;11.528;2023-04-29T11:19:41;15.10;70.30
40622;DHT22;26324;52.040;11.528;2023-04-29T11:27:20;15.20;69.10
40622;DHT22;26324;52.040;11.528;2023-04-29T11:29:49;15.20;68.80
40622;DHT22;26324;52.040;11.528;2023-04-29T11:32:20;15.30;69.30
40622;DHT22;26324;52.040;11.528;2023-04-29T11:34:48;15.40;68.20
40622;DHT22;26324;52.040;11.528;2023-04-29T11:37:25;15.50;67.20
40622;DHT22;26324;52.040;11.528;2023-04-29T11:39:58;15.60;66.10
40622;DHT22;26324;52.040;11.528;2023-04-29T11:42:27;15.80;66.90
40622;DHT22;26324;52.040;11.528;2023-04-29T11:44:54;16.00;65.60
40622;DHT22;26324;52.040;11.528;2023-04-29T11:47:27;16.10;65.10
40622;DHT22;26324;52.040;11.528;2023-04-29T11:50:06;16.40;63.60
40622;DHT22;26324;52.040;11.528;2023-04-29T11:52:35;16.40;65.20
40622;DHT22;26324;52.040;11.528;2023-04-29T11:55:04;16.70;62.10
40622;DHT22;26324;52.040;11.528;2023-04-29T11:57:32;16.60;62.10
40622;DHT22;26324;52.040;11.528;2023-04-29T11:59:59;16.60;64.30
40622;DHT22;26324;52.040;11.528;2023-04-29T12:02:31;16.60;63.30
40622;DHT22;26324;52.040;11.528;2023-04-29T12:05:04;16.40;63.10
40622;DHT22;26324;52.040;11.528;2023-04-29T12:07:32;16.30;64.10
40622;DHT22;26324;52.040;11.528;2023-04-29T12:09:59;16.20;65.10
40622;DHT22;26324;52.040;11.528;2023-04-29T12:12:27;16.10;64.50
40622;DHT22;26324;52.040;11.528;2023-04-29T12:14:55;16.00;65.90
40622;DHT22;26324;52.040;11.528;2023-04-29T12:17:23;16.10;62.90
40622;DHT22;26324;52.040;11.528;2023-04-29T12:19:50;16.10;62.80
40622;DHT22;26324;52.040;11.528;2023-04-29T12:22:18;16.00;63.90
40622;DHT22;26324;52.040;11.528;2023-04-29T12:24:46;16.00;63.50
40622;DHT22;26324;52.040;11.528;2023-04-29T12:27:13;15.80;64.30
40622;DHT22;26324;52.040;11.528;2023-04-29T12:29:40;15.60;65.40
40622;DHT22;26324;52.040;11.528;2023-04-29T12:32:11;15.50;64.70
40622;DHT22;26324;52.040;11.528;2023-04-29T12:34:44;15.30;64.90
40622;DHT22;26324;52.040;11.528;2023-04-29T12:37:12;15.20;65.60
40622;DHT22;26324;52.040;11.528;2023-04-29T12:39:41;15.30;65.70
40622;DHT22;26324;52.040;11.528;2023-04-29T12:42:14;15.40;63.50
40622;DHT22;26324;52.040;11.528;2023-04-29T12:44:45;15.60;66.00
40622;DHT22;26324;52.040;11.528;2023-04-29T12:47:16;15.70;63.60
40622;DHT22;26324;52.040;11.528;2023-04-29T12:49:44;15.80;64.00
40622;DHT22;26324;52.040;11.528;2023-04-29T12:52:12;15.80;63.60
40622;DHT22;26324;52.040;11.528;2023-04-29T12:54:40;15.70;65.20
40622;DHT22;26324;52.040;11.528;2023-04-29T12:57:11;15.60;65.00
40622;DHT22;26324;52.040;11.528;2023-04-29T12:59:38;15.60;63.80
40622;DHT22;26324;52.040;11.528;2023-04-29T13:02:07;15.50;64.70
40622;DHT22;26324;52.040;11.528;2023-04-29T13:04:35;15.50;64.50
40622;DHT22;26324;52.040;11.528;2023-04-29T13:07:02;15.60;62.80
40622;DHT22;26324;52.040;11.528;2023-04-29T13:09:30;15.80;61.40
40622;DHT22;26324;52.040;11.528;2023-04-29T13:11:58;15.90;62.30
40622;DHT22;26324;52.040;11.528;2023-04-29T13:14:25;15.80;62.70
40622;DHT22;26324;52.040;11.528;2023-04-29T13:16:53;15.80;63.20
40622;DHT22;26324;52.040;11.528;2023-04-29T13:19:20;15.70;62.40
40622;DHT22;26324;52.040;11.528;2023-04-29T13:21:51;15.60;61.20
40622;DHT22;26324;52.040;11.528;2023-04-29T13:24:19;15.50;62.60
40622;DHT22;26324;52.040;11.528;2023-04-29T13:26:47;15.40;64.20
40622;DHT22;26324;52.040;11.528;2023-04-29T13:29:18;15.30;63.90
40622;DHT22;26324;52.040;11.528;2023-04-29T13:31:45;15.30;64.40
40622;DHT22;26324;52.040;11.528;2023-04-29T13:34:13;15.20;63.80
40622;DHT22;26324;52.040;11.528;2023-04-29T13:36:40;15.30;65.10
40622;DHT22;26324;52.040;11.528;2023-04-29T13:39:07;15.30;64.70
40622;DHT22;26324;52.040;11.528;2023-04-29T13:41:34;15.40;63.30
40622;DHT22;26324;52.040;11.528;2023-04-29T13:44:02;15.50;64.10
40622;DHT22;26324;52.040;11.528;2023-04-29T13:46:37;15.90;63.80
40622;DHT22;26324;52.040;11.528;2023-04-29T13:49:04;16.20;63.20
40622;DHT22;26324;52.040;11.528;2023-04-29T13:51:51;16.40;59.50
40622;DHT22;26324;52.040;11.528;2023-04-29T13:54:38;16.30;61.10
40622;DHT22;26324;52.040;11.528;2023-04-29T13:57:26;16.20;61.30
40622;DHT22;26324;52.040;11.528;2023-04-29T14:00:14;16.10;60.90
40622;DHT22;26324;52.040;11.528;2023-04-29T14:03:02;16.10;60.20
40622;DHT22;26324;52.040;11.528;2023-04-29T14:05:29;16.20;59.40
40622;DHT22;26324;52.040;11.528;2023-04-29T14:07:57;16.50;60.40
40622;DHT22;26324;52.040;11.528;2023-04-29T14:10:24;17.10;58.90
40622;DHT22;26324;52.040;11.528;2023-04-29T14:12:52;17.30;58.30
40622;DHT22;26324;52.040;11.528;2023-04-29T14:15:19;17.10;58.80
40622;DHT22;26324;52.040;11.528;2023-04-29T14:17:46;17.00;59.60
40622;DHT22;26324;52.040;11.528;2023-04-29T14:20:16;16.70;60.40
40622;DHT22;26324;52.040;11.528;2023-04-29T14:22:43;16.50;60.90
40622;DHT22;26324;52.040;11.528;2023-04-29T14:25:11;16.30;58.70
40622;DHT22;26324;52.040;11.528;2023-04-29T14:27:39;16.10;61.80
40622;DHT22;26324;52.040;11.528;2023-04-29T14:30:07;16.10;62.60
40622;DHT22;26324;52.040;11.528;2023-04-29T14:32:34;16.10;61.00
40622;DHT22;26324;52.040;11.528;2023-04-29T14:35:02;16.00;60.50
40622;DHT22;26324;52.040;11.528;2023-04-29T14:37:29;16.00;60.30
40622;DHT22;26324;52.040;11.528;2023-04-29T14:39:56;16.00;60.80
40622;DHT22;26324;52.040;11.528;2023-04-29T14:42:24;15.90;58.90
40622;DHT22;26324;52.040;11.528;2023-04-29T14:44:51;15.80;60.20
40622;DHT22;26324;52.040;11.528;2023-04-29T14:47:20;15.70;61.10
40622;DHT22;26324;52.040;11.528;2023-04-29T14:49:47;15.70;61.10
40622;DHT22;26324;52.040;11.528;2023-04-29T14:52:15;15.80;62.60
40622;DHT22;26324;52.040;11.528;2023-04-29T14:54:42;15.90;62.80
40622;DHT22;26324;52.040;11.528;2023-04-29T14:57:09;15.90;63.10
40622;DHT22;26324;52.040;11.528;2023-04-29T14:59:37;15.90;62.50
40622;DHT22;26324;52.040;11.528;2023-04-29T15:02:04;15.80;62.30
40622;DHT22;26324;52.040;11.528;2023-04-29T15:04:32;15.70;61.90
40622;DHT22;26324;52.040;11.528;2023-04-29T15:07:00;15.60;61.90
40622;DHT22;26324;52.040;11.528;2023-04-29T15:09:30;15.60;62.00
40622;DHT22;26324;52.040;11.528;2023-04-29T15:11:58;15.50;62.10
40622;DHT22;26324;52.040;11.528;2023-04-29T15:14:25;15.60;61.50
40622;DHT22;26324;52.040;11.528;2023-04-29T15:16:52;15.70;62.40
40622;DHT22;26324;52.040;11.528;2023-04-29T15:19:19;15.80;61.20
40622;DHT22;26324;52.040;11.528;2023-04-29T15:21:47;15.80;60.50
40622;DHT22;26324;52.040;11.528;2023-04-29T15:24:14;15.80;61.10
40622;DHT22;26324;52.040;11.528;2023-04-29T15:26:41;15.70;60.40
40622;DHT22;26324;52.040;11.528;2023-04-29T15:29:09;15.60;61.00
40622;DHT22;26324;52.040;11.528;2023-04-29T15:31:37;15.50;61.00
40622;DHT22;26324;52.040;11.528;2023-04-29T15:34:05;15.60;60.90
40622;DHT22;26324;52.040;11.528;2023-04-29T15:36:32;15.50;61.70
40622;DHT22;26324;52.040;11.528;2023-04-29T15:39:00;15.50;62.90
40622;DHT22;26324;52.040;11.528;2023-04-29T15:41:27;15.60;62.40
40622;DHT22;26324;52.040;11.528;2023-04-29T15:43:58;15.60;59.30
40622;DHT22;26324;52.040;11.528;2023-04-29T15:46:25;15.60;61.20
40622;DHT22;26324;52.040;11.528;2023-04-29T15:48:54;15.50;61.80
40622;DHT22;26324;52.040;11.528;2023-04-29T15:51:21;15.40;62.80
40622;DHT22;26324;52.040;11.528;2023-04-29T15:53:48;15.30;62.20
40622;DHT22;26324;52.040;11.528;2023-04-29T15:56:17;15.40;61.90
40622;DHT22;26324;52.040;11.528;2023-04-29T15:58:44;15.30;61.90
40622;DHT22;26324;52.040;11.528;2023-04-29T16:01:11;15.30;62.40